Terminal Aerodrome Forecast
Issued by NWS

Home | Current Version | Previous Version | Text Only | Print | Product List | Glossary On
Versions: 1 2 3 4 5 6 7 8 9 10 11 12 13 14 15 16 17 18 19 20 21
000
FTUS43 KGRR 011100
TAFJXN
TAF
KJXN 011140Z 0112/0212 06007KT 1SM -SN BR VV017
     FM011230 07012G20KT 1/2SM SN BLSN OVC006
     FM011800 06016G26KT 1/4SM +SN BLSN VV004
     FM020200 05015G25KT 1/2SM SN BLSN OVC008=

USA.gov is the U.S. government's official web portal to all federal, state and local government web resources and services.